createdAt,value
2019-01-25T00:01:38.317Z,36.03
2019-01-25T00:04:45.009Z,34.63
2019-01-25T00:07:51.892Z,32.77
2019-01-25T00:10:59.262Z,34.60
2019-01-25T00:14:06.501Z,35.40
2019-01-25T00:17:13.342Z,35.63
2019-01-25T00:20:20.068Z,33.27
2019-01-25T00:23:26.798Z,33.90
2019-01-25T00:26:33.451Z,32.27
2019-01-25T00:29:41.972Z,33.97
2019-01-25T00:32:49.475Z,32.17
2019-01-25T00:35:56.031Z,34.30
2019-01-25T00:39:04.487Z,31.57
2019-01-25T00:42:11.223Z,35.20
2019-01-25T00:45:18.284Z,33.90
2019-01-25T00:48:25.165Z,34.60
2019-01-25T00:51:36.447Z,31.10
2019-01-25T00:54:43.463Z,31.10
2019-01-25T00:57:50.172Z,33.00
2019-01-25T01:00:56.711Z,33.67
2019-01-25T01:04:03.382Z,33.40
2019-01-25T01:07:10.199Z,32.10
2019-01-25T01:10:17.210Z,34.63
2019-01-25T01:13:24.080Z,35.00
2019-01-25T01:16:31.711Z,33.63
2019-01-25T01:19:38.386Z,33.70
2019-01-25T01:22:45.757Z,33.70
2019-01-25T01:25:52.567Z,32.60
2019-01-25T01:28:59.515Z,31.93
2019-01-25T01:32:06.230Z,32.70
2019-01-25T01:35:13.638Z,32.93
2019-01-25T01:38:20.754Z,31.43
2019-01-25T01:41:27.316Z,32.50
2019-01-25T01:44:34.527Z,33.60
2019-01-25T01:47:41.086Z,33.20
2019-01-25T01:50:48.477Z,33.27
2019-01-25T01:53:55.321Z,32.33
2019-01-25T01:57:01.924Z,33.23
2019-01-25T02:00:13.315Z,32.47
2019-01-25T02:03:19.872Z,30.63
2019-01-25T02:06:26.880Z,32.80
2019-01-25T02:09:33.262Z,32.00
2019-01-25T02:12:41.082Z,33.50
2019-01-25T02:15:48.037Z,33.00
2019-01-25T02:18:54.840Z,33.70
2019-01-25T02:22:01.267Z,35.33
2019-01-25T02:25:07.913Z,35.20
2019-01-25T02:28:14.730Z,32.63
2019-01-25T02:31:21.415Z,34.43
2019-01-25T02:34:27.777Z,33.73
2019-01-25T02:37:34.790Z,34.70
2019-01-25T02:40:41.519Z,34.97
2019-01-25T02:43:48.075Z,38.63
2019-01-25T02:46:54.812Z,37.90
2019-01-25T02:50:01.409Z,35.57
2019-01-25T02:53:07.816Z,36.90
2019-01-25T02:56:14.699Z,35.33
2019-01-25T02:59:21.539Z,35.23
2019-01-25T03:02:28.441Z,34.60
2019-01-25T03:05:35.082Z,34.03
2019-01-25T03:08:41.665Z,36.57
2019-01-25T03:11:48.418Z,35.13
2019-01-25T03:14:54.989Z,35.63
2019-01-25T03:18:01.534Z,36.10
2019-01-25T03:21:10.025Z,36.00
2019-01-25T03:24:16.668Z,35.90
2019-01-25T03:27:23.797Z,37.97
2019-01-25T03:30:31.424Z,33.20
2019-01-25T03:33:38.402Z,34.07
2019-01-25T03:36:45.057Z,34.20
2019-01-25T03:39:51.651Z,37.03
2019-01-25T03:42:58.340Z,36.20
2019-01-25T03:46:04.983Z,34.47
2019-01-25T03:49:12.422Z,33.17
2019-01-25T03:52:19.067Z,33.93
2019-01-25T03:55:25.961Z,34.47
2019-01-25T03:58:32.625Z,35.67
2019-01-25T04:01:39.775Z,34.90
2019-01-25T04:04:46.742Z,34.17
2019-01-25T04:07:53.434Z,35.17
2019-01-25T04:11:03.923Z,35.27
2019-01-25T04:14:08.374Z,36.20
2019-01-25T04:17:14.739Z,34.50
2019-01-25T04:20:21.516Z,32.70
2019-01-25T04:23:28.470Z,33.90
2019-01-25T04:26:35.223Z,34.27
2019-01-25T04:29:41.977Z,34.50
2019-01-25T04:32:48.784Z,35.57
2019-01-25T04:35:55.183Z,35.93
2019-01-25T04:39:01.997Z,33.20
2019-01-25T04:42:09.859Z,34.97
2019-01-25T04:45:17.993Z,34.03
2019-01-25T04:48:24.846Z,34.93
2019-01-25T04:51:31.491Z,34.40
2019-01-25T04:54:38.240Z,32.53
2019-01-25T04:57:44.667Z,33.47
2019-01-25T05:00:51.203Z,36.00
2019-01-25T05:03:57.924Z,34.80
2019-01-25T05:07:05.483Z,35.63
2019-01-25T05:10:12.387Z,35.07
2019-01-25T05:13:19.715Z,34.00
2019-01-25T05:16:26.176Z,34.73
2019-01-25T05:19:39.183Z,33.00
2019-01-25T05:22:45.923Z,36.90
2019-01-25T05:25:52.750Z,34.20
2019-01-25T05:28:59.619Z,34.33
2019-01-25T05:32:07.150Z,36.33
2019-01-25T05:35:14.156Z,35.90
2019-01-25T05:38:20.932Z,41.10
2019-01-25T05:41:28.760Z,34.80
2019-01-25T05:44:35.413Z,39.97
2019-01-25T05:47:42.147Z,36.50
2019-01-25T05:50:48.942Z,35.53
2019-01-25T05:53:55.513Z,37.30
2019-01-25T05:57:02.152Z,35.60
2019-01-25T06:00:13.488Z,35.33
2019-01-25T06:03:19.793Z,37.33
2019-01-25T06:06:26.074Z,41.60
2019-01-25T06:09:34.778Z,41.80
2019-01-25T06:12:45.827Z,39.40
2019-01-25T06:15:52.959Z,40.67
2019-01-25T06:18:59.679Z,41.30
2019-01-25T06:22:06.928Z,40.43
2019-01-25T06:25:13.916Z,39.40
2019-01-25T06:28:20.428Z,40.40
2019-01-25T06:31:27.291Z,37.60
2019-01-25T06:34:33.663Z,40.47
2019-01-25T06:37:40.539Z,38.70
2019-01-25T06:40:47.277Z,40.37
2019-01-25T06:43:53.947Z,37.87
2019-01-25T06:47:00.643Z,34.87
2019-01-25T06:50:07.397Z,36.93
2019-01-25T06:53:14.269Z,36.77
2019-01-25T06:56:21.241Z,34.77
2019-01-25T06:59:35.285Z,38.07
2019-01-25T07:02:42.863Z,35.17
2019-01-25T07:05:50.029Z,35.33
2019-01-25T07:08:56.849Z,35.73
2019-01-25T07:12:03.331Z,35.50
2019-01-25T07:15:11.120Z,35.50
2019-01-25T07:18:18.063Z,35.30
2019-01-25T07:21:24.854Z,35.17
2019-01-25T07:24:32.100Z,34.40
2019-01-25T07:27:39.385Z,34.47
2019-01-25T07:30:46.405Z,34.17
2019-01-25T07:33:53.149Z,36.00
2019-01-25T07:36:59.677Z,34.23
2019-01-25T07:40:06.811Z,34.67
2019-01-25T07:43:13.869Z,34.37
2019-01-25T07:46:21.020Z,33.40
2019-01-25T07:49:27.540Z,33.87
2019-01-25T07:52:34.357Z,34.27
2019-01-25T07:55:41.057Z,35.40
2019-01-25T07:58:48.077Z,34.27
2019-01-25T08:01:56.069Z,36.53
2019-01-25T08:05:03.115Z,37.17
2019-01-25T08:08:09.909Z,36.80
2019-01-25T08:11:16.514Z,34.30
2019-01-25T08:14:23.353Z,37.30
2019-01-25T08:17:32.065Z,37.20
2019-01-25T08:20:38.580Z,35.63
2019-01-25T08:23:45.405Z,37.00
2019-01-25T08:26:51.803Z,36.70
2019-01-25T08:29:58.507Z,35.63
2019-01-25T08:33:05.532Z,37.63
2019-01-25T08:36:12.462Z,38.37
2019-01-25T08:39:19.154Z,39.00
2019-01-25T08:42:25.860Z,40.27
2019-01-25T08:45:32.887Z,36.77
2019-01-25T08:48:39.565Z,35.37
2019-01-25T08:51:46.795Z,38.10
2019-01-25T08:54:53.172Z,38.10
2019-01-25T08:58:00.111Z,41.33
2019-01-25T09:01:08.290Z,39.37
2019-01-25T09:04:14.643Z,39.60
2019-01-25T09:07:21.503Z,38.47
2019-01-25T09:10:28.206Z,37.77
2019-01-25T09:13:35.327Z,42.07
2019-01-25T09:16:42.495Z,40.73
2019-01-25T09:19:48.874Z,47.67
2019-01-25T09:22:55.831Z,40.10
2019-01-25T09:26:03.134Z,38.70
2019-01-25T09:29:09.664Z,41.00
2019-01-25T09:32:16.983Z,43.97
2019-01-25T09:35:24.735Z,40.13
2019-01-25T09:38:31.564Z,39.57
2019-01-25T09:41:39.562Z,38.97
2019-01-25T09:44:46.361Z,37.60
2019-01-25T09:47:53.606Z,46.10
2019-01-25T09:51:00.642Z,37.70
2019-01-25T09:54:08.154Z,37.33
2019-01-25T09:57:15.013Z,37.70
2019-01-25T10:00:33.740Z,38.40
2019-01-25T10:03:41.137Z,36.33
2019-01-25T10:06:47.866Z,35.67
2019-01-25T10:09:54.694Z,36.27
2019-01-25T10:13:01.282Z,29.00
2019-01-25T10:16:08.267Z,26.30
2019-01-25T10:19:14.963Z,25.87
2019-01-25T10:22:21.537Z,23.30
2019-01-25T10:25:29.737Z,25.23
2019-01-25T10:28:36.860Z,25.77
2019-01-25T10:31:43.901Z,26.07
2019-01-25T10:34:50.407Z,25.83
2019-01-25T10:37:57.698Z,24.93
2019-01-25T10:41:04.438Z,24.87
2019-01-25T10:44:10.807Z,25.80
2019-01-25T10:47:17.753Z,25.77
2019-01-25T10:50:25.420Z,25.87
2019-01-25T10:53:32.278Z,24.63
2019-01-25T10:56:41.912Z,28.43
2019-01-25T10:59:48.067Z,25.60
2019-01-25T11:02:58.403Z,26.27
2019-01-25T11:06:03.090Z,27.03
2019-01-25T11:09:10.402Z,26.80
2019-01-25T11:12:17.708Z,24.60
2019-01-25T11:15:24.410Z,24.37
2019-01-25T11:18:30.780Z,25.57
2019-01-25T11:21:39.045Z,25.30
2019-01-25T11:24:45.470Z,24.87
2019-01-25T11:27:51.859Z,26.87
2019-01-25T11:30:58.789Z,23.47
2019-01-25T11:34:05.456Z,24.80
2019-01-25T11:37:13.340Z,22.40
2019-01-25T11:40:22.680Z,24.70
2019-01-25T11:43:29.606Z,24.50
2019-01-25T11:46:37.140Z,24.43
2019-01-25T11:49:45.026Z,25.50
2019-01-25T11:52:51.666Z,22.80
2019-01-25T11:55:58.258Z,23.90
2019-01-25T11:59:05.171Z,22.00
2019-01-25T12:02:13.415Z,23.37
2019-01-25T12:05:21.229Z,23.83
2019-01-25T12:08:27.923Z,26.63
2019-01-25T12:11:34.936Z,22.27
2019-01-25T12:14:42.524Z,22.17
2019-01-25T12:17:49.132Z,17.80
2019-01-25T12:20:56.613Z,18.50
2019-01-25T12:24:03.543Z,18.70
2019-01-25T12:27:10.280Z,17.90
2019-01-25T12:30:20.618Z,17.27
2019-01-25T12:33:28.081Z,15.90
2019-01-25T12:36:35.451Z,16.40
2019-01-25T12:39:42.567Z,16.60
2019-01-25T12:42:49.074Z,18.40
2019-01-25T12:45:55.676Z,17.10
2019-01-25T12:49:02.151Z,17.27
2019-01-25T12:52:10.824Z,16.43
2019-01-25T12:55:17.521Z,17.50
2019-01-25T12:58:24.536Z,16.43
2019-01-25T13:01:34.989Z,16.93
2019-01-25T13:04:39.901Z,15.17
2019-01-25T13:07:47.130Z,15.20
2019-01-25T13:10:53.722Z,15.80
2019-01-25T13:14:00.766Z,15.90
2019-01-25T13:17:07.303Z,16.17
2019-01-25T13:20:17.690Z,15.23
2019-01-25T13:23:24.522Z,14.83
2019-01-25T13:26:31.215Z,14.70
2019-01-25T13:29:38.348Z,13.63
2019-01-25T13:32:45.030Z,13.97
2019-01-25T13:35:52.142Z,13.57
2019-01-25T13:38:59.094Z,13.10
2019-01-25T13:42:06.249Z,14.70
2019-01-25T13:45:15.129Z,14.90
2019-01-25T13:48:22.238Z,14.00
2019-01-25T13:51:31.305Z,14.13
2019-01-25T13:54:38.314Z,12.93
2019-01-25T13:57:45.380Z,13.47
2019-01-25T14:00:52.201Z,13.67
2019-01-25T14:03:58.691Z,14.13
2019-01-25T14:07:04.917Z,14.10
2019-01-25T14:10:14.300Z,13.60
2019-01-25T14:13:23.359Z,13.77
2019-01-25T14:16:31.268Z,12.00
2019-01-25T14:19:38.221Z,13.80
2019-01-25T14:22:45.135Z,13.77
2019-01-25T14:25:51.994Z,13.77
2019-01-25T14:28:58.808Z,14.20
2019-01-25T14:32:05.649Z,13.50
2019-01-25T14:35:12.640Z,12.67
2019-01-25T14:38:19.704Z,13.43
2019-01-25T14:41:27.316Z,13.30
2019-01-25T14:44:34.025Z,13.40
2019-01-25T14:47:41.026Z,15.10
2019-01-25T14:50:47.654Z,17.23
2019-01-25T14:53:54.514Z,18.90
2019-01-25T14:57:01.334Z,15.03
2019-01-25T15:00:09.104Z,15.43
2019-01-25T15:03:17.294Z,17.37
2019-01-25T15:06:23.840Z,15.53
2019-01-25T15:09:31.085Z,14.17
2019-01-25T15:12:39.032Z,16.80
2019-01-25T15:15:45.873Z,14.60
2019-01-25T15:18:52.473Z,14.70
2019-01-25T15:21:59.971Z,14.30
2019-01-25T15:25:07.526Z,13.67
2019-01-25T15:28:14.442Z,14.40
2019-01-25T15:31:21.844Z,14.23
2019-01-25T15:34:28.723Z,13.90
2019-01-25T15:37:35.787Z,13.27
2019-01-25T15:40:42.516Z,14.07
2019-01-25T15:43:49.643Z,13.20
2019-01-25T15:46:57.034Z,14.30
2019-01-25T15:50:05.788Z,14.00
2019-01-25T15:53:13.363Z,12.10
2019-01-25T15:56:21.101Z,14.57
2019-01-25T15:59:27.981Z,12.77
2019-01-25T16:02:35.157Z,11.73
2019-01-25T16:05:41.932Z,12.70
2019-01-25T16:08:48.571Z,12.87
2019-01-25T16:11:55.055Z,12.70
2019-01-25T16:15:01.535Z,12.87
2019-01-25T16:18:08.200Z,12.83
2019-01-25T16:21:14.994Z,11.43
2019-01-25T16:24:22.243Z,12.13
2019-01-25T16:27:30.340Z,11.33
2019-01-25T16:30:39.116Z,13.60
2019-01-25T16:33:46.625Z,19.30
2019-01-25T16:36:55.076Z,13.80
2019-01-25T16:40:01.904Z,38.10
2019-01-25T16:43:10.998Z,45.33
2019-01-25T16:46:17.957Z,30.60
2019-01-25T16:49:24.851Z,24.60
2019-01-25T16:52:31.740Z,13.83
2019-01-25T16:55:38.536Z,13.40
2019-01-25T16:58:45.476Z,14.90
2019-01-25T17:01:53.439Z,13.43
2019-01-25T17:05:00.744Z,14.00
2019-01-25T17:08:09.271Z,10.40
2019-01-25T17:11:16.585Z,11.07
2019-01-25T17:14:23.985Z,11.47
2019-01-25T17:17:31.028Z,9.97
2019-01-25T17:20:38.528Z,13.17
2019-01-25T17:23:45.279Z,11.57
2019-01-25T17:26:52.019Z,11.57
2019-01-25T17:29:58.703Z,11.07
2019-01-25T17:33:05.912Z,10.90
2019-01-25T17:36:13.731Z,10.70
2019-01-25T17:39:22.173Z,10.10
2019-01-25T17:42:28.910Z,11.07
2019-01-25T17:45:36.059Z,9.73
2019-01-25T17:48:43.503Z,11.77
2019-01-25T17:51:51.738Z,10.33
2019-01-25T17:54:59.703Z,13.40
2019-01-25T17:58:08.276Z,12.23
2019-01-25T18:01:15.840Z,11.70
2019-01-25T18:04:23.233Z,14.70
2019-01-25T18:07:31.554Z,12.67
2019-01-25T18:10:38.898Z,12.23
2019-01-25T18:13:47.606Z,13.37
2019-01-25T18:16:55.565Z,12.60
2019-01-25T18:20:03.010Z,13.00
2019-01-25T18:23:09.719Z,12.17
2019-01-25T18:26:22.611Z,13.17
2019-01-25T18:29:51.441Z,13.37
2019-01-25T18:32:59.751Z,12.83
2019-01-25T18:36:06.949Z,13.97
2019-01-25T18:39:15.366Z,14.20
2019-01-25T18:42:24.510Z,11.97
2019-01-25T18:45:31.512Z,13.07
2019-01-25T18:48:38.956Z,12.37
2019-01-25T18:51:46.362Z,12.70
2019-01-25T18:54:52.881Z,14.03
2019-01-25T18:57:59.645Z,14.37
2019-01-25T19:01:06.385Z,16.23
2019-01-25T19:04:12.970Z,12.57
2019-01-25T19:07:19.693Z,15.63
2019-01-25T19:10:27.145Z,15.97
2019-01-25T19:13:34.405Z,13.43
2019-01-25T19:16:42.074Z,13.97
2019-01-25T19:19:49.489Z,14.10
2019-01-25T19:22:56.184Z,13.30
2019-01-25T19:26:02.862Z,14.80
2019-01-25T19:29:10.194Z,14.13
2019-01-25T19:32:16.649Z,14.37
2019-01-25T19:35:24.406Z,13.00
2019-01-25T19:38:31.267Z,14.30
2019-01-25T19:41:40.831Z,14.90
2019-01-25T19:44:48.219Z,15.50
2019-01-25T19:47:55.439Z,14.53
2019-01-25T19:51:02.528Z,14.63
2019-01-25T19:54:09.319Z,16.40
2019-01-25T19:57:15.878Z,17.00
2019-01-25T20:00:28.614Z,16.37
2019-01-25T20:03:35.351Z,18.23
2019-01-25T20:06:42.279Z,18.27
2019-01-25T20:09:49.667Z,18.27
2019-01-25T20:12:57.966Z,19.03
2019-01-25T20:16:06.672Z,20.27
2019-01-25T20:19:13.781Z,20.93
2019-01-25T20:22:20.475Z,20.20
2019-01-25T20:25:29.478Z,20.57
2019-01-25T20:28:37.902Z,22.40
2019-01-25T20:31:45.874Z,22.00
2019-01-25T20:34:52.491Z,22.00
2019-01-25T20:38:01.744Z,23.00
2019-01-25T20:41:09.455Z,24.77
2019-01-25T20:44:16.300Z,24.93
2019-01-25T20:47:23.059Z,22.00
2019-01-25T20:50:31.756Z,24.67
2019-01-25T20:53:38.407Z,20.93
2019-01-25T20:56:45.229Z,20.23
2019-01-25T20:59:51.973Z,19.13
2019-01-25T21:02:58.708Z,18.80
2019-01-25T21:06:05.651Z,17.97
2019-01-25T21:09:13.086Z,17.27
2019-01-25T21:12:20.262Z,20.40
2019-01-25T21:15:34.813Z,18.27
2019-01-25T21:18:36.262Z,14.77
2019-01-25T21:21:43.688Z,16.50
2019-01-25T21:24:50.922Z,14.07
2019-01-25T21:27:57.777Z,16.70
2019-01-25T21:31:04.130Z,16.23
2019-01-25T21:34:11.286Z,14.27
2019-01-25T21:37:18.247Z,11.43
2019-01-25T21:40:27.031Z,12.07
2019-01-25T21:43:33.523Z,10.27
2019-01-25T21:46:40.908Z,10.80
2019-01-25T21:49:48.042Z,10.70
2019-01-25T21:52:54.590Z,10.90
2019-01-25T21:56:01.066Z,10.43
2019-01-25T21:59:08.373Z,10.37
2019-01-25T22:02:14.925Z,10.37
2019-01-25T22:05:22.254Z,9.37
2019-01-25T22:08:29.297Z,9.00
2019-01-25T22:11:37.568Z,9.50
2019-01-25T22:14:45.378Z,9.13
2019-01-25T22:17:52.534Z,9.03
2019-01-25T22:20:59.249Z,8.77
2019-01-25T22:24:06.551Z,7.77
2019-01-25T22:27:15.225Z,9.70
2019-01-25T22:30:23.171Z,9.90
2019-01-25T22:33:29.848Z,9.27
2019-01-25T22:36:40.420Z,9.30
2019-01-25T22:39:48.449Z,8.87
2019-01-25T22:42:55.965Z,10.00
2019-01-25T22:46:02.858Z,9.97
2019-01-25T22:49:10.234Z,9.77
2019-01-25T22:52:16.847Z,10.00
2019-01-25T22:55:30.114Z,9.77
2019-01-25T22:58:36.915Z,9.67
2019-01-25T23:01:44.013Z,10.77
2019-01-25T23:05:25.137Z,10.20
2019-01-25T23:08:31.768Z,9.77
2019-01-25T23:11:39.216Z,10.40
2019-01-25T23:14:46.221Z,10.77
2019-01-25T23:17:52.739Z,11.03
2019-01-25T23:20:59.547Z,10.67
2019-01-25T23:24:06.333Z,10.77
2019-01-25T23:27:14.184Z,10.17
2019-01-25T23:30:20.675Z,10.50
2019-01-25T23:33:28.145Z,11.63
2019-01-25T23:36:36.186Z,11.77
2019-01-25T23:39:42.492Z,10.30
2019-01-25T23:42:49.027Z,10.47
2019-01-25T23:45:55.838Z,10.10
2019-01-25T23:49:02.423Z,11.83
2019-01-25T23:52:09.325Z,10.33
2019-01-25T23:55:16.204Z,10.23
2019-01-25T23:58:23.534Z,11.00
